Time;durP1;ratioP1;P1;durP2;ratioP2;P2;SDS_P1;SDS_P2;PMS_P1;PMS_P2;Temp;Humidity;BMP_temperature;BMP_pressure;BME280_temperature;BME280_humidity;BME280_pressure;Samples;Min_cycle;Max_cycle;Signal;HPM_P1;HPM_P2
2021/04/12 00:02:17;;;;;;;;;;;14.00;74.40;;;;;;5022977;28;19913;-58
2021/04/12 00:05:08;;;;;;;;;;;13.90;74.50;;;;;;5019099;28;19913;-58
2021/04/12 00:07:34;;;;;;;;;;;13.90;74.50;;;;;;5022069;28;19922;-58
2021/04/12 00:10:04;;;;;;;;;;;13.90;74.50;;;;;;5044024;28;20017;-58
2021/04/12 00:12:29;;;;;;;;;;;13.90;74.50;;;;;;5014190;28;20007;-58
2021/04/12 00:14:56;;;;;;;;;;;13.90;74.40;;;;;;5011615;28;19921;-59
2021/04/12 00:17:29;;;;;;;;;;;13.80;74.30;;;;;;5020975;28;19921;-58
2021/04/12 00:20:01;;;;;;;;;;;13.80;74.20;;;;;;5025484;28;20446;-56
2021/04/12 00:22:28;;;;;;;;;;;13.70;74.20;;;;;;5002886;28;20285;-56
2021/04/12 00:25:00;;;;;;;;;;;13.70;74.30;;;;;;5029981;28;20434;-57
2021/04/12 00:27:27;;;;;;;;;;;13.60;74.30;;;;;;5003519;28;20081;-58
2021/04/12 00:29:56;;;;;;;;;;;13.60;74.40;;;;;;5023793;28;19913;-58
2021/04/12 00:32:24;;;;;;;;;;;13.60;74.40;;;;;;5039437;28;20436;-58
2021/04/12 00:34:52;;;;;;;;;;;13.50;74.30;;;;;;5025015;28;20008;-58
2021/04/12 00:37:19;;;;;;;;;;;13.50;74.40;;;;;;5019913;28;20024;-57
2021/04/12 00:39:49;;;;;;;;;;;13.50;74.40;;;;;;5033331;28;19921;-56
2021/04/12 00:42:14;;;;;;;;;;;13.50;74.40;;;;;;5021957;28;19913;-56
2021/04/12 00:44:46;;;;;;;;;;;13.40;74.40;;;;;;5014023;28;19921;-58
2021/04/12 00:47:11;;;;;;;;;;;13.40;74.40;;;;;;5008834;28;19913;-58
2021/04/12 00:49:39;;;;;;;;;;;13.30;74.40;;;;;;5011067;28;20333;-56
2021/04/12 00:52:23;;;;;;;;;;;13.40;74.50;;;;;;5030022;28;20412;-56
2021/04/12 00:54:56;;;;;;;;;;;13.30;74.40;;;;;;5010444;28;20363;-56
2021/04/12 00:57:25;;;;;;;;;;;13.30;74.40;;;;;;5030239;28;20387;-58
2021/04/12 00:59:53;;;;;;;;;;;13.30;74.30;;;;;;5027972;28;19955;-57
2021/04/12 01:02:33;;;;;;;;;;;13.30;74.30;;;;;;5031741;28;19959;-57
2021/04/12 01:04:59;;;;;;;;;;;13.20;74.20;;;;;;5025624;28;20336;-57
2021/04/12 01:07:24;;;;;;;;;;;13.20;74.10;;;;;;5019575;28;19963;-58
2021/04/12 01:10:02;;;;;;;;;;;13.20;74.20;;;;;;5026532;28;19968;-59
2021/04/12 01:12:30;;;;;;;;;;;13.10;74.10;;;;;;5015457;28;20001;-56
2021/04/12 01:15:15;;;;;;;;;;;13.10;74.00;;;;;;5020815;28;19913;-57
2021/04/12 01:17:59;;;;;;;;;;;13.00;74.00;;;;;;5021019;28;19917;-57
2021/04/12 01:20:31;;;;;;;;;;;13.00;74.00;;;;;;5018258;28;19917;-57
2021/04/12 01:23:15;;;;;;;;;;;13.00;74.10;;;;;;5010773;28;20340;-57
2021/04/12 01:25:49;;;;;;;;;;;13.00;74.00;;;;;;5017825;28;19915;-56
2021/04/12 01:28:20;;;;;;;;;;;13.00;73.80;;;;;;5031105;28;19909;-56
2021/04/12 01:31:04;;;;;;;;;;;12.90;73.80;;;;;;5013229;28;19913;-57
2021/04/12 01:33:42;;;;;;;;;;;12.90;73.80;;;;;;5021783;28;19917;-56
2021/04/12 01:36:26;;;;;;;;;;;12.90;73.80;;;;;;5028966;28;20420;-56
2021/04/12 01:38:55;;;;;;;;;;;12.80;73.70;;;;;;5016702;28;19922;-57
2021/04/12 01:41:24;;;;;;;;;;;12.80;73.80;;;;;;5031243;28;19917;-57
2021/04/12 01:44:08;;;;;;;;;;;12.70;73.70;;;;;;5014341;28;19921;-58
2021/04/12 01:46:52;;;;;;;;;;;12.70;73.80;;;;;;5005763;28;19992;-56
2021/04/12 01:49:22;;;;;;;;;;;12.70;73.80;;;;;;5016464;28;20427;-58
2021/04/12 01:52:00;;;;;;;;;;;12.70;73.80;;;;;;5028503;28;19918;-57
2021/04/12 01:54:26;;;;;;;;;;;12.60;73.70;;;;;;5022885;28;19913;-57
2021/04/12 01:57:10;;;;;;;;;;;12.60;73.80;;;;;;5013336;28;19928;-58
2021/04/12 01:59:38;;;;;;;;;;;12.60;73.80;;;;;;5016421;28;20004;-58
2021/04/12 02:02:13;;;;;;;;;;;12.50;73.70;;;;;;5015331;28;19921;-58
2021/04/12 02:04:38;;;;;;;;;;;12.50;73.70;;;;;;5012818;28;19909;-58
2021/04/12 02:07:07;;;;;;;;;;;12.50;73.60;;;;;;5020785;28;19913;-57
2021/04/12 02:09:44;;;;;;;;;;;12.40;73.60;;;;;;5011336;28;19909;-58
2021/04/12 02:12:12;;;;;;;;;;;12.50;73.60;;;;;;5021815;28;19933;-56
2021/04/12 02:14:47;;;;;;;;;;;12.40;73.50;;;;;;5015237;28;20298;-56
2021/04/12 02:17:14;;;;;;;;;;;12.40;73.40;;;;;;5019922;28;19925;-57
2021/04/12 02:19:43;;;;;;;;;;;12.40;73.40;;;;;;5023086;28;19917;-58
2021/04/12 02:22:17;;;;;;;;;;;12.30;73.40;;;;;;5013452;28;19975;-58
2021/04/12 02:25:01;;;;;;;;;;;12.30;73.50;;;;;;5024953;28;19915;-56
2021/04/12 02:27:28;;;;;;;;;;;12.30;73.50;;;;;;5017302;28;19978;-59
2021/04/12 02:29:55;;;;;;;;;;;12.30;73.50;;;;;;5004992;28;19913;-56
2021/04/12 02:32:39;;;;;;;;;;;12.20;73.30;;;;;;5026978;28;19931;-57
2021/04/12 02:35:08;;;;;;;;;;;12.20;73.40;;;;;;5021216;28;20488;-57
2021/04/12 02:37:44;;;;;;;;;;;12.20;73.40;;;;;;5022221;28;19921;-56
2021/04/12 02:40:10;;;;;;;;;;;12.20;73.40;;;;;;5029929;28;19940;-58
2021/04/12 02:42:44;;;;;;;;;;;12.10;73.30;;;;;;5023965;28;20269;-57
2021/04/12 02:45:19;;;;;;;;;;;12.10;73.30;;;;;;5035766;28;19913;-58
2021/04/12 02:47:47;;;;;;;;;;;12.00;73.30;;;;;;5026449;28;19921;-58
2021/04/12 02:50:13;;;;;;;;;;;12.00;73.30;;;;;;5010570;28;19953;-56
2021/04/12 02:52:51;;;;;;;;;;;12.00;73.30;;;;;;5015698;28;19964;-58
2021/04/12 02:55:25;;;;;;;;;;;12.00;73.30;;;;;;5034710;28;19920;-56
2021/04/12 02:57:59;;;;;;;;;;;12.00;73.10;;;;;;5014177;28;20368;-56
2021/04/12 03:00:26;;;;;;;;;;;12.00;73.10;;;;;;5014954;28;19937;-58
2021/04/12 03:02:54;;;;;;;;;;;12.00;73.00;;;;;;5053961;28;19913;-57
2021/04/12 03:05:23;;;;;;;;;;;11.90;73.00;;;;;;5028233;28;20296;-57
2021/04/12 03:07:55;;;;;;;;;;;11.90;73.00;;;;;;5024925;28;19909;-57
2021/04/12 03:10:23;;;;;;;;;;;11.80;72.90;;;;;;5025467;28;20324;-58
2021/04/12 03:12:57;;;;;;;;;;;11.90;73.00;;;;;;5011127;28;19921;-56
2021/04/12 03:15:29;;;;;;;;;;;11.80;72.90;;;;;;5031908;28;19913;-57
2021/04/12 03:18:13;;;;;;;;;;;11.70;72.90;;;;;;5024258;28;20439;-58
2021/04/12 03:21:01;;;;;;;;;;;11.70;72.80;;;;;;5017007;28;19923;-59
2021/04/12 03:23:33;;;;;;;;;;;11.70;72.90;;;;;;5021607;28;20361;-58
2021/04/12 03:26:03;;;;;;;;;;;11.70;72.90;;;;;;5021718;28;19913;-56
2021/04/12 03:28:41;;;;;;;;;;;11.70;73.00;;;;;;5030221;28;19918;-58
2021/04/12 03:31:21;;;;;;;;;;;11.60;72.90;;;;;;5017763;28;20152;-57
2021/04/12 03:34:05;;;;;;;;;;;11.60;72.90;;;;;;5014122;28;20300;-58
2021/04/12 03:36:35;;;;;;;;;;;11.60;73.00;;;;;;5018811;28;19913;-59
2021/04/12 03:39:16;;;;;;;;;;;11.50;72.90;;;;;;5027184;28;20397;-57
2021/04/12 03:42:01;;;;;;;;;;;11.50;72.90;;;;;;5027697;28;20262;-58
2021/04/12 03:44:33;;;;;;;;;;;11.40;72.90;;;;;;5029766;28;19913;-58
2021/04/12 03:47:17;;;;;;;;;;;11.40;72.90;;;;;;5017006;28;19913;-57
2021/04/12 03:49:48;;;;;;;;;;;11.40;72.90;;;;;;5023640;28;19921;-57
2021/04/12 03:52:23;;;;;;;;;;;11.40;72.80;;;;;;5018142;28;19967;-59
2021/04/12 03:54:50;;;;;;;;;;;11.30;72.70;;;;;;5023960;28;19909;-57
2021/04/12 03:57:15;;;;;;;;;;;11.30;72.80;;;;;;5033393;28;20381;-57
2021/04/12 03:59:43;;;;;;;;;;;11.20;72.70;;;;;;5020119;28;20031;-58
2021/04/12 04:02:11;;;;;;;;;;;11.20;72.80;;;;;;5017439;28;19913;-58
2021/04/12 04:04:56;;;;;;;;;;;11.20;72.70;;;;;;5012187;28;20373;-58
2021/04/12 04:07:21;;;;;;;;;;;11.20;72.80;;;;;;5013559;28;19919;-58
2021/04/12 04:09:47;;;;;;;;;;;11.10;72.70;;;;;;5016201;28;19944;-57
2021/04/12 04:12:34;;;;;;;;;;;11.10;72.80;;;;;;5025881;28;20327;-57
2021/04/12 04:15:02;;;;;;;;;;;11.00;72.70;;;;;;5025997;28;19921;-59
2021/04/12 04:17:32;;;;;;;;;;;11.10;72.60;;;;;;5008407;28;20009;-58
2021/04/12 04:20:16;;;;;;;;;;;11.00;72.70;;;;;;5019759;28;20254;-57
2021/04/12 04:22:50;;;;;;;;;;;11.00;72.70;;;;;;5015048;28;20024;-56
2021/04/12 04:25:34;;;;;;;;;;;10.90;72.70;;;;;;5011133;28;19925;-58
2021/04/12 04:28:02;;;;;;;;;;;10.90;72.70;;;;;;5011946;28;19959;-57
2021/04/12 04:30:46;;;;;;;;;;;10.90;72.70;;;;;;5011771;28;19914;-57
2021/04/12 04:33:22;;;;;;;;;;;10.80;72.80;;;;;;5016843;28;19932;-57
2021/04/12 04:35:50;;;;;;;;;;;10.80;72.90;;;;;;5016599;28;19917;-57
2021/04/12 04:38:26;;;;;;;;;;;10.80;72.90;;;;;;5016196;28;20010;-57
2021/04/12 04:41:10;;;;;;;;;;;10.70;73.00;;;;;;5023177;28;20269;-57
2021/04/12 04:43:59;;;;;;;;;;;10.70;73.00;;;;;;5010202;28;19925;-58
2021/04/12 04:46:24;;;;;;;;;;;10.70;73.00;;;;;;5000300;28;19913;-59
2021/04/12 04:48:53;;;;;;;;;;;10.60;73.00;;;;;;5004949;28;19925;-57
2021/04/12 04:51:44;;;;;;;;;;;10.60;73.00;;;;;;4999653;28;20362;-56
2021/04/12 04:54:12;;;;;;;;;;;10.60;73.00;;;;;;5001206;28;19920;-58
2021/04/12 04:56:57;;;;;;;;;;;10.60;73.00;;;;;;5017561;28;19926;-57
2021/04/12 04:59:23;;;;;;;;;;;10.60;73.00;;;;;;5034831;28;20008;-57
2021/04/12 05:02:01;;;;;;;;;;;10.50;73.00;;;;;;5007910;28;20437;-59
2021/04/12 05:04:27;;;;;;;;;;;10.50;72.90;;;;;;5035524;28;19909;-58
2021/04/12 05:07:11;;;;;;;;;;;10.50;72.90;;;;;;5015978;28;19917;-59
2021/04/12 05:10:01;;;;;;;;;;;10.50;73.00;;;;;;5022756;28;19968;-58
2021/04/12 05:12:45;;;;;;;;;;;10.50;73.00;;;;;;5027399;28;20415;-58
2021/04/12 05:15:29;;;;;;;;;;;10.50;73.00;;;;;;5019330;28;19955;-58
2021/04/12 05:18:01;;;;;;;;;;;10.50;73.00;;;;;;5024420;28;20012;-57
2021/04/12 05:20:39;;;;;;;;;;;10.40;73.00;;;;;;5005630;28;19913;-57
2021/04/12 05:23:14;;;;;;;;;;;10.40;73.10;;;;;;5029921;28;19917;-57
2021/04/12 05:25:44;;;;;;;;;;;10.40;73.10;;;;;;5036698;28;19953;-58
2021/04/12 05:28:19;;;;;;;;;;;10.40;73.20;;;;;;5034863;28;19964;-57
2021/04/12 05:31:03;;;;;;;;;;;10.40;73.20;;;;;;5015987;28;19913;-57
2021/04/12 05:33:48;;;;;;;;;;;10.30;73.30;;;;;;5011191;28;20368;-57
2021/04/12 05:36:24;;;;;;;;;;;10.30;73.40;;;;;;5024913;28;20353;-59
2021/04/12 05:38:56;;;;;;;;;;;10.30;73.30;;;;;;5024305;28;20390;-58
2021/04/12 05:41:33;;;;;;;;;;;10.30;73.30;;;;;;5014531;28;19957;-57
2021/04/12 05:44:04;;;;;;;;;;;10.10;73.10;;;;;;5017184;28;19922;-56
2021/04/12 05:46:34;;;;;;;;;;;10.20;73.20;;;;;;5018092;28;19924;-58
2021/04/12 05:49:12;;;;;;;;;;;10.30;73.30;;;;;;5021291;28;19925;-56
2021/04/12 05:51:50;;;;;;;;;;;10.20;73.30;;;;;;5029584;28;20039;-57
2021/04/12 05:54:30;;;;;;;;;;;10.20;73.30;;;;;;5000129;28;19918;-56
2021/04/12 05:56:56;;;;;;;;;;;10.10;73.20;;;;;;4994110;28;19913;-58
2021/04/12 05:59:30;;;;;;;;;;;10.10;73.20;;;;;;4995342;28;19920;-58
2021/04/12 06:01:59;;;;;;;;;;;10.10;73.40;;;;;;5012174;28;19913;-58
2021/04/12 06:04:41;;;;;;;;;;;10.10;73.40;;;;;;4993970;28;19957;-58
2021/04/12 06:07:26;;;;;;;;;;;10.10;73.30;;;;;;5010922;28;20323;-56
2021/04/12 06:10:09;;;;;;;;;;;10.00;73.40;;;;;;4994136;28;20310;-58
2021/04/12 06:12:53;;;;;;;;;;;10.00;74.10;;;;;;4998211;28;19984;-57
2021/04/12 06:15:37;;;;;;;;;;;10.00;73.50;;;;;;5001720;28;20670;-58
2021/04/12 06:18:21;;;;;;;;;;;10.00;73.60;;;;;;5004247;28;20362;-56
2021/04/12 06:21:06;;;;;;;;;;;10.00;73.50;;;;;;5002568;28;20377;-57
2021/04/12 06:23:35;;;;;;;;;;;10.00;73.50;;;;;;5008644;28;19919;-57
2021/04/12 06:26:19;;;;;;;;;;;9.90;73.40;;;;;;5024664;28;19918;-58
2021/04/12 06:28:54;;;;;;;;;;;10.00;73.60;;;;;;5007397;28;19924;-58
2021/04/12 06:31:43;;;;;;;;;;;9.90;73.40;;;;;;5032233;28;20159;-57
2021/04/12 06:34:38;;;;;;;;;;;9.90;73.40;;;;;;5021214;28;19921;-56
2021/04/12 06:37:22;;;;;;;;;;;9.90;73.30;;;;;;4987500;28;19920;-58
2021/04/12 06:40:06;;;;;;;;;;;9.90;73.30;;;;;;5005474;28;20108;-57
2021/04/12 06:42:50;;;;;;;;;;;9.90;73.30;;;;;;5011392;28;19921;-58
2021/04/12 06:45:15;;;;;;;;;;;9.80;73.20;;;;;;5017292;28;19955;-57
2021/04/12 06:47:47;;;;;;;;;;;9.80;73.30;;;;;;5006739;28;19968;-58
2021/04/12 06:50:31;;;;;;;;;;;9.80;73.30;;;;;;5026248;28;19909;-57
2021/04/12 06:53:15;;;;;;;;;;;9.80;73.30;;;;;;5021007;28;20293;-58
2021/04/12 06:55:40;;;;;;;;;;;9.80;73.30;;;;;;5019044;28;20402;-57
2021/04/12 06:58:18;;;;;;;;;;;9.80;73.30;;;;;;5017543;28;19921;-56
2021/04/12 07:00:55;;;;;;;;;;;9.80;73.40;;;;;;5002415;28;19932;-56
2021/04/12 07:03:40;;;;;;;;;;;9.80;73.30;;;;;;5021813;28;19975;-59
2021/04/12 07:06:24;;;;;;;;;;;9.80;73.30;;;;;;5018661;28;19959;-57
2021/04/12 07:08:49;;;;;;;;;;;9.80;73.30;;;;;;5012136;28;20012;-57
2021/04/12 07:11:18;;;;;;;;;;;9.70;73.20;;;;;;5003382;28;20020;-58
2021/04/12 07:13:49;;;;;;;;;;;9.70;73.30;;;;;;5006526;28;19917;-58
2021/04/12 07:16:37;;;;;;;;;;;9.80;73.30;;;;;;5003692;28;19918;-57
2021/04/12 07:19:09;;;;;;;;;;;9.70;73.10;;;;;;5017039;28;20464;-56
2021/04/12 07:21:53;;;;;;;;;;;9.70;73.10;;;;;;4998456;28;20340;-58
2021/04/12 07:24:28;;;;;;;;;;;9.70;73.10;;;;;;5009926;28;20028;-58
2021/04/12 07:27:12;;;;;;;;;;;9.70;73.20;;;;;;5014367;28;20309;-58
2021/04/12 07:29:37;;;;;;;;;;;9.70;73.30;;;;;;4993403;28;19953;-59
2021/04/12 07:32:06;;;;;;;;;;;9.60;73.20;;;;;;5016520;28;20024;-58
2021/04/12 07:34:50;;;;;;;;;;;9.60;73.20;;;;;;4996926;28;19957;-56
2021/04/12 07:37:34;;;;;;;;;;;9.60;73.30;;;;;;5020575;28;20272;-59
2021/04/12 07:40:18;;;;;;;;;;;9.60;73.30;;;;;;5009162;28;20574;-57
2021/04/12 07:42:50;;;;;;;;;;;9.60;73.30;;;;;;5013321;28;19921;-58
2021/04/12 07:45:31;;;;;;;;;;;9.60;73.40;;;;;;5026523;28;19913;-57
2021/04/12 07:48:12;;;;;;;;;;;9.60;73.50;;;;;;5020537;28;19914;-57
2021/04/12 07:50:47;;;;;;;;;;;9.60;73.30;;;;;;5007343;28;19920;-57
2021/04/12 07:53:30;;;;;;;;;;;9.60;73.40;;;;;;5009888;28;19921;-57
2021/04/12 07:56:05;;;;;;;;;;;9.60;73.30;;;;;;5004791;28;19917;-57
2021/04/12 07:58:30;;;;;;;;;;;9.60;73.30;;;;;;5002752;28;19926;-56
2021/04/12 08:01:01;;;;;;;;;;;9.60;73.40;;;;;;5008083;28;20281;-56
2021/04/12 08:03:45;;;;;;;;;;;9.60;73.40;;;;;;5016674;28;19995;-56
2021/04/12 08:06:20;;;;;;;;;;;9.60;73.30;;;;;;5010606;28;19917;-59
2021/04/12 08:09:04;;;;;;;;;;;9.70;73.30;;;;;;5016242;28;19913;-56
2021/04/12 08:11:44;;;;;;;;;;;9.60;73.30;;;;;;4998804;28;19965;-56
2021/04/12 08:14:28;;;;;;;;;;;9.70;73.20;;;;;;4995598;28;19924;-57
2021/04/12 08:17:05;;;;;;;;;;;9.60;73.10;;;;;;5005301;28;19921;-56
2021/04/12 08:19:32;;;;;;;;;;;9.70;73.20;;;;;;5011368;28;19949;-57
2021/04/12 08:22:00;;;;;;;;;;;9.60;73.20;;;;;;5033819;28;19917;-59
2021/04/12 08:24:38;;;;;;;;;;;9.60;73.30;;;;;;4998685;28;19910;-58
2021/04/12 08:27:10;;;;;;;;;;;9.60;73.30;;;;;;5016526;28;19913;-59
2021/04/12 08:29:54;;;;;;;;;;;9.60;73.30;;;;;;5027113;28;19909;-57
2021/04/12 08:32:30;;;;;;;;;;;9.60;73.30;;;;;;5001801;28;20008;-58
2021/04/12 08:35:09;;;;;;;;;;;9.60;73.30;;;;;;5019554;28;20008;-57
2021/04/12 08:37:51;;;;;;;;;;;9.60;73.30;;;;;;5037350;28;20443;-57
2021/04/12 08:40:35;;;;;;;;;;;9.60;73.20;;;;;;5009895;28;19987;-57
2021/04/12 08:43:14;;;;;;;;;;;9.60;73.20;;;;;;5012968;28;20249;-59
2021/04/12 08:45:42;;;;;;;;;;;9.60;73.20;;;;;;5018665;28;20016;-57
2021/04/12 08:48:26;;;;;;;;;;;9.60;73.20;;;;;;5011201;28;20028;-58
2021/04/12 08:51:10;;;;;;;;;;;9.60;73.20;;;;;;5006929;28;20011;-58
2021/04/12 08:53:55;;;;;;;;;;;9.60;73.20;;;;;;5013398;28;21357;-57
2021/04/12 08:56:37;;;;;;;;;;;9.60;73.10;;;;;;5008841;28;19921;-57
2021/04/12 08:59:21;;;;;;;;;;;9.60;73.10;;;;;;5024233;28;19929;-56
2021/04/12 09:02:05;;;;;;;;;;;9.60;73.10;;;;;;4996121;28;19914;-57
2021/04/12 09:04:41;;;;;;;;;;;9.70;73.10;;;;;;5003116;28;20451;-57
2021/04/12 09:07:17;;;;;;;;;;;9.70;73.10;;;;;;5018506;28;19939;-58
2021/04/12 09:09:50;;;;;;;;;;;9.70;73.00;;;;;;5028975;28;20056;-57
2021/04/12 09:12:22;;;;;;;;;;;9.70;73.00;;;;;;5018843;28;19959;-57
2021/04/12 09:14:59;;;;;;;;;;;9.70;73.00;;;;;;5008356;28;19913;-58
2021/04/12 09:17:40;;;;;;;;;;;9.70;72.90;;;;;;5014385;28;19976;-57
2021/04/12 09:20:27;;;;;;;;;;;9.70;72.90;;;;;;5023772;28;20016;-57
2021/04/12 09:23:11;;;;;;;;;;;9.70;72.80;;;;;;5026698;28;20044;-56
2021/04/12 09:25:39;;;;;;;;;;;9.70;72.80;;;;;;5011580;28;19970;-58
2021/04/12 09:28:19;;;;;;;;;;;9.80;72.80;;;;;;5024446;28;20035;-57
2021/04/12 09:30:51;;;;;;;;;;;9.80;72.80;;;;;;5009355;28;20361;-56
2021/04/12 09:33:16;;;;;;;;;;;9.80;72.70;;;;;;5018180;28;19921;-57
2021/04/12 09:35:53;;;;;;;;;;;9.80;72.80;;;;;;5013898;28;19921;-58
2021/04/12 09:38:38;;;;;;;;;;;9.80;72.70;;;;;;5013036;28;19921;-56
2021/04/12 09:41:09;;;;;;;;;;;9.80;72.70;;;;;;5010290;28;19917;-58
2021/04/12 09:43:34;;;;;;;;;;;9.80;72.70;;;;;;5019071;28;19913;-57
2021/04/12 09:46:09;;;;;;;;;;;9.80;72.70;;;;;;5011047;28;20272;-56
2021/04/12 09:48:53;;;;;;;;;;;9.80;72.70;;;;;;5024946;28;19959;-57
2021/04/12 09:51:37;;;;;;;;;;;9.80;72.70;;;;;;5016144;28;19913;-56
2021/04/12 09:54:21;;;;;;;;;;;9.80;72.60;;;;;;5011172;28;19909;-58
2021/04/12 09:56:51;;;;;;;;;;;9.80;72.60;;;;;;5014971;28;20340;-57
2021/04/12 09:59:20;;;;;;;;;;;9.90;72.60;;;;;;5031463;28;19917;-57
2021/04/12 10:02:04;;;;;;;;;;;9.90;72.60;;;;;;5018630;28;19945;-58
2021/04/12 10:04:48;;;;;;;;;;;9.90;72.50;;;;;;5034519;28;19967;-57
2021/04/12 10:07:14;;;;;;;;;;;9.90;72.50;;;;;;5013880;28;20344;-56
2021/04/12 10:09:44;;;;;;;;;;;9.90;72.50;;;;;;5013967;28;19917;-57
2021/04/12 10:12:19;;;;;;;;;;;9.90;72.30;;;;;;5027506;28;20395;-58
2021/04/12 10:15:00;;;;;;;;;;;10.00;72.40;;;;;;5000661;28;20000;-57
2021/04/12 10:17:28;;;;;;;;;;;10.00;72.40;;;;;;5038384;28;19909;-59
2021/04/12 10:19:55;;;;;;;;;;;9.90;72.40;;;;;;5015454;28;19918;-57
2021/04/12 10:22:41;;;;;;;;;;;10.00;72.40;;;;;;5035751;28;19916;-57
2021/04/12 10:25:08;;;;;;;;;;;10.00;72.30;;;;;;5007125;28;20000;-57
2021/04/12 10:27:37;;;;;;;;;;;10.00;72.30;;;;;;5013819;28;20268;-56
2021/04/12 10:30:10;;;;;;;;;;;10.00;72.90;;;;;;5027619;28;19913;-58
2021/04/12 10:32:36;;;;;;;;;;;10.00;72.20;;;;;;5018935;28;20281;-56
2021/04/12 10:35:10;;;;;;;;;;;10.00;72.20;;;;;;5023263;28;19917;-56
2021/04/12 10:37:43;;;;;;;;;;;10.00;72.20;;;;;;5004532;28;19933;-57
2021/04/12 10:40:15;;;;;;;;;;;10.10;72.20;;;;;;5021304;28;19921;-57
2021/04/12 10:42:41;;;;;;;;;;;10.10;72.10;;;;;;4999900;28;20000;-58
2021/04/12 10:45:14;;;;;;;;;;;10.10;72.20;;;;;;5000855;28;20008;-57
2021/04/12 10:47:54;;;;;;;;;;;10.10;72.20;;;;;;5030874;28;20327;-57
2021/04/12 10:50:26;;;;;;;;;;;10.10;72.20;;;;;;5008449;28;19957;-56
2021/04/12 10:53:10;;;;;;;;;;;10.20;72.00;;;;;;5019331;28;20017;-56
2021/04/12 10:55:36;;;;;;;;;;;10.20;71.90;;;;;;4998927;28;19968;-60
2021/04/12 10:58:06;;;;;;;;;;;10.20;71.80;;;;;;5004129;28;19917;-58
2021/04/12 11:00:36;;;;;;;;;;;10.20;71.80;;;;;;5042391;28;19914;-57
2021/04/12 11:03:11;;;;;;;;;;;10.20;71.80;;;;;;5019144;28;20369;-58
2021/04/12 11:05:36;;;;;;;;;;;10.20;71.80;;;;;;5008010;28;20264;-59
2021/04/12 11:08:18;;;;;;;;;;;10.20;71.80;;;;;;5025604;28;19940;-57
2021/04/12 11:10:44;;;;;;;;;;;10.20;72.40;;;;;;5020762;28;19913;-59
2021/04/12 11:13:16;;;;;;;;;;;10.20;71.70;;;;;;5034744;28;19964;-58
2021/04/12 11:16:08;;;;;;;;;;;10.20;71.80;;;;;;5019091;28;19909;-57
2021/04/12 11:18:53;;;;;;;;;;;10.20;71.80;;;;;;5001563;28;20275;-56
2021/04/12 11:21:35;;;;;;;;;;;10.30;71.80;;;;;;4990679;28;19972;-56
2021/04/12 11:24:01;;;;;;;;;;;10.30;71.70;;;;;;5011578;28;20344;-57
2021/04/12 11:26:31;;;;;;;;;;;10.30;71.60;;;;;;4998845;28;20013;-58
2021/04/12 11:28:58;;;;;;;;;;;10.30;71.50;;;;;;5013398;28;19909;-56
2021/04/12 11:31:35;;;;;;;;;;;10.40;71.60;;;;;;5030067;28;20338;-56
2021/04/12 11:34:20;;;;;;;;;;;10.40;71.50;;;;;;5001675;28;20273;-57
2021/04/12 11:36:57;;;;;;;;;;;10.40;71.40;;;;;;5004941;28;20384;-58
2021/04/12 11:39:33;;;;;;;;;;;10.40;71.30;;;;;;5012068;28;19928;-58
2021/04/12 11:41:59;;;;;;;;;;;10.50;71.30;;;;;;5013959;28;19913;-59
2021/04/12 11:44:45;;;;;;;;;;;10.50;71.40;;;;;;5017682;28;19949;-58
2021/04/12 11:47:29;;;;;;;;;;;10.50;71.40;;;;;;4997218;28;19921;-56
2021/04/12 11:50:27;;;;;;;;;;;10.50;71.40;;;;;;5011258;28;19917;-57
2021/04/12 11:52:57;;;;;;;;;;;10.50;71.40;;;;;;4988167;28;20000;-56
2021/04/12 11:55:28;;;;;;;;;;;10.50;71.30;;;;;;5028459;28;19928;-57
2021/04/12 11:57:59;;;;;;;;;;;10.50;71.30;;;;;;5015058;28;19963;-57
2021/04/12 12:00:39;;;;;;;;;;;10.50;71.30;;;;;;5027381;28;19925;-57
2021/04/12 12:03:11;;;;;;;;;;;10.50;71.20;;;;;;5023857;28;19910;-56
2021/04/12 12:05:36;;;;;;;;;;;10.50;71.10;;;;;;5027953;28;20225;-58
2021/04/12 12:08:06;;;;;;;;;;;10.60;71.80;;;;;;5007609;28;19914;-56
2021/04/12 12:10:36;;;;;;;;;;;10.60;71.10;;;;;;5014248;28;20066;-56
2021/04/12 12:13:10;;;;;;;;;;;10.60;71.10;;;;;;5018603;28;19971;-56
2021/04/12 12:15:55;;;;;;;;;;;10.60;71.10;;;;;;5028900;28;20315;-56
2021/04/12 12:18:27;;;;;;;;;;;10.60;71.00;;;;;;5013615;28;19928;-58
2021/04/12 12:20:53;;;;;;;;;;;10.60;71.00;;;;;;5027835;28;19971;-57
2021/04/12 12:23:22;;;;;;;;;;;10.60;71.00;;;;;;5028301;28;19913;-58
2021/04/12 12:25:48;;;;;;;;;;;10.60;71.00;;;;;;5007246;28;19914;-58
2021/04/12 12:28:21;;;;;;;;;;;10.70;70.90;;;;;;5027457;28;19936;-55
2021/04/12 12:30:51;;;;;;;;;;;10.70;70.80;;;;;;5022125;28;20581;-58
2021/04/12 12:33:26;;;;;;;;;;;10.60;70.70;;;;;;5027963;28;19975;-57
2021/04/12 12:36:06;;;;;;;;;;;10.70;70.70;;;;;;5026782;28;19909;-56
2021/04/12 12:38:45;;;;;;;;;;;10.80;70.60;;;;;;5018800;28;19928;-58
2021/04/12 12:41:15;;;;;;;;;;;10.80;70.50;;;;;;5046023;28;19917;-57
2021/04/12 12:43:41;;;;;;;;;;;10.80;70.50;;;;;;5024908;28;19918;-58
2021/04/12 12:46:10;;;;;;;;;;;10.80;70.40;;;;;;5004080;28;20282;-58
2021/04/12 12:48:40;;;;;;;;;;;10.90;70.40;;;;;;5030573;28;19914;-59
2021/04/12 12:51:13;;;;;;;;;;;10.90;70.40;;;;;;5006156;28;20015;-56
2021/04/12 12:53:40;;;;;;;;;;;10.90;70.40;;;;;;5018613;28;19913;-59
2021/04/12 12:56:06;;;;;;;;;;;10.90;70.40;;;;;;5038013;28;19910;-58
2021/04/12 12:58:32;;;;;;;;;;;11.00;70.40;;;;;;5020665;28;20344;-57
2021/04/12 13:00:58;;;;;;;;;;;11.00;70.40;;;;;;5026669;28;20000;-57
2021/04/12 13:03:35;;;;;;;;;;;11.00;70.40;;;;;;5022377;28;19909;-56
2021/04/12 13:06:14;;;;;;;;;;;10.90;70.30;;;;;;5018426;28;19967;-56
2021/04/12 13:08:47;;;;;;;;;;;10.90;70.30;;;;;;5027355;28;19995;-58
2021/04/12 13:11:12;;;;;;;;;;;10.90;70.40;;;;;;5036648;28;19913;-59
2021/04/12 13:13:39;;;;;;;;;;;10.90;70.40;;;;;;5024462;28;19960;-56
2021/04/12 13:16:17;;;;;;;;;;;10.90;70.50;;;;;;5037986;28;19966;-56
2021/04/12 13:18:52;;;;;;;;;;;10.90;70.60;;;;;;5017537;28;20440;-58
2021/04/12 13:21:22;;;;;;;;;;;10.90;70.50;;;;;;5021737;28;19933;-57
2021/04/12 13:23:47;;;;;;;;;;;10.90;70.50;;;;;;5026915;28;19921;-58
2021/04/12 13:26:22;;;;;;;;;;;10.90;70.60;;;;;;5011929;28;19969;-57
2021/04/12 13:28:47;;;;;;;;;;;10.90;70.60;;;;;;5024698;28;19921;-58
2021/04/12 13:31:17;;;;;;;;;;;10.90;70.50;;;;;;5017990;28;19935;-57
2021/04/12 13:33:46;;;;;;;;;;;10.90;70.50;;;;;;5029848;28;19917;-57
2021/04/12 13:36:16;;;;;;;;;;;10.90;70.50;;;;;;5022900;28;19965;-55
2021/04/12 13:38:41;;;;;;;;;;;10.90;70.50;;;;;;5013514;28;19978;-57
2021/04/12 13:41:25;;;;;;;;;;;10.90;70.50;;;;;;5014228;28;19914;-58
2021/04/12 13:43:54;;;;;;;;;;;10.90;71.20;;;;;;5021613;28;19917;-57
2021/04/12 13:46:30;;;;;;;;;;;10.80;70.50;;;;;;5042249;28;19921;-57
2021/04/12 13:49:04;;;;;;;;;;;10.90;70.70;;;;;;5023016;28;20357;-57
2021/04/12 13:51:50;;;;;;;;;;;10.90;70.50;;;;;;5017705;28;19917;-58
2021/04/12 13:54:26;;;;;;;;;;;10.90;70.50;;;;;;5002284;28;20003;-56
2021/04/12 13:56:52;;;;;;;;;;;10.90;70.50;;;;;;5010635;28;19944;-56
2021/04/12 13:59:21;;;;;;;;;;;10.90;70.50;;;;;;5024360;28;19924;-58
2021/04/12 14:01:55;;;;;;;;;;;10.90;70.50;;;;;;5027123;28;19918;-58
2021/04/12 14:04:21;;;;;;;;;;;10.90;70.50;;;;;;5030013;28;19936;-56
2021/04/12 14:06:55;;;;;;;;;;;10.90;70.40;;;;;;5036313;28;19913;-56
2021/04/12 14:09:21;;;;;;;;;;;11.00;70.50;;;;;;5016161;28;19964;-57
2021/04/12 14:11:54;;;;;;;;;;;11.00;70.50;;;;;;5010462;28;19976;-56
2021/04/12 14:14:24;;;;;;;;;;;11.00;70.70;;;;;;5032127;28;20335;-56
2021/04/12 14:16:55;;;;;;;;;;;11.00;70.70;;;;;;5011445;28;19913;-58
2021/04/12 14:19:25;;;;;;;;;;;11.00;70.90;;;;;;5024246;28;19926;-58
2021/04/12 14:21:51;;;;;;;;;;;11.00;70.80;;;;;;5036786;28;19917;-56
2021/04/12 14:24:30;;;;;;;;;;;11.10;70.80;;;;;;5022611;28;19931;-58
2021/04/12 14:27:01;;;;;;;;;;;11.10;70.80;;;;;;5025024;28;20455;-58
2021/04/12 14:29:27;;;;;;;;;;;11.20;70.60;;;;;;5034514;28;19913;-56
2021/04/12 14:31:53;;;;;;;;;;;11.20;70.60;;;;;;5014631;28;20432;-57
2021/04/12 14:34:35;;;;;;;;;;;11.20;70.60;;;;;;5034967;28;19913;-58
2021/04/12 14:37:08;;;;;;;;;;;11.20;70.60;;;;;;5027092;28;19988;-56
2021/04/12 14:39:33;;;;;;;;;;;11.30;70.40;;;;;;5017993;28;19925;-56
2021/04/12 14:42:01;;;;;;;;;;;11.30;70.50;;;;;;5023255;28;19929;-56
2021/04/12 14:44:43;;;;;;;;;;;11.30;70.40;;;;;;5026422;28;19967;-56
2021/04/12 14:47:29;;;;;;;;;;;11.30;70.30;;;;;;5024112;28;20439;-56
2021/04/12 14:50:02;;;;;;;;;;;11.30;70.90;;;;;;5007267;28;19924;-57
2021/04/12 14:52:33;;;;;;;;;;;11.30;70.30;;;;;;5024473;28;19913;-58
2021/04/12 14:55:06;;;;;;;;;;;11.30;70.20;;;;;;5022698;28;19975;-57
2021/04/12 14:57:33;;;;;;;;;;;11.40;70.30;;;;;;5045118;28;19913;-58
2021/04/12 15:00:07;;;;;;;;;;;11.40;70.20;;;;;;5030111;28;19926;-60
2021/04/12 15:02:38;;;;;;;;;;;11.40;70.30;;;;;;5018200;28;19913;-55
2021/04/12 15:05:05;;;;;;;;;;;11.40;70.20;;;;;;5030086;28;19958;-57